createdAt,value
2023-03-05T00:00:43.515Z,5.83
2023-03-05T00:03:12.924Z,5.71
2023-03-05T00:05:42.458Z,5.83
2023-03-05T00:08:11.713Z,5.83
2023-03-05T00:10:41.271Z,5.75
2023-03-05T00:13:13.089Z,5.80
2023-03-05T00:15:44.120Z,5.71
2023-03-05T00:18:13.433Z,5.68
2023-03-05T00:20:42.660Z,5.72
2023-03-05T00:23:11.866Z,5.66
2023-03-05T00:25:41.142Z,5.68
2023-03-05T00:28:13.208Z,5.58
2023-03-05T00:30:43.047Z,5.76
2023-03-05T00:33:14.873Z,5.70
2023-03-05T00:35:44.746Z,5.83
2023-03-05T00:38:14.808Z,5.42
2023-03-05T00:40:44.724Z,5.62
2023-03-05T00:43:16.622Z,5.74
2023-03-05T00:45:45.830Z,5.77
2023-03-05T00:48:15.141Z,5.58
2023-03-05T00:50:44.370Z,5.47
2023-03-05T00:53:13.637Z,5.65
2023-03-05T00:55:42.840Z,5.70
2023-03-05T00:58:12.098Z,5.78
2023-03-05T01:00:44.075Z,5.47
2023-03-05T01:03:13.325Z,5.59
2023-03-05T01:05:42.526Z,5.51
2023-03-05T01:08:11.762Z,5.63
2023-03-05T01:10:41.544Z,5.42
2023-03-05T01:13:11.245Z,5.53
2023-03-05T01:15:40.534Z,5.34
2023-03-05T01:18:12.418Z,5.51
2023-03-05T01:20:42.155Z,5.45
2023-03-05T01:23:11.730Z,5.55
2023-03-05T01:25:40.983Z,5.35
2023-03-05T01:28:11.087Z,5.31
2023-03-05T01:30:40.758Z,5.39
2023-03-05T01:33:12.583Z,5.57
2023-03-05T01:35:41.866Z,5.60
2023-03-05T01:38:11.123Z,5.54
2023-03-05T01:40:40.344Z,5.56
2023-03-05T01:43:24.935Z,5.61
2023-03-05T01:46:25.245Z,5.70
2023-03-05T01:49:01.208Z,5.68
2023-03-05T01:51:34.378Z,5.69
2023-03-05T01:54:05.552Z,5.64
2023-03-05T01:56:35.219Z,5.29
2023-03-05T01:59:05.978Z,5.36
2023-03-05T02:01:40.793Z,5.34
2023-03-05T02:04:15.672Z,5.23
2023-03-05T02:06:46.278Z,5.44
2023-03-05T02:09:15.881Z,5.44
2023-03-05T02:11:45.839Z,5.28
2023-03-05T02:14:15.548Z,5.33
2023-03-05T02:16:45.544Z,5.43
2023-03-05T02:19:20.290Z,5.42
2023-03-05T02:21:52.917Z,5.27
2023-03-05T02:24:37.332Z,5.55
2023-03-05T02:27:09.795Z,5.55
2023-03-05T02:29:44.498Z,5.58
2023-03-05T02:32:14.619Z,5.42
2023-03-05T02:34:44.449Z,5.36
2023-03-05T02:37:16.230Z,5.38
2023-03-05T02:39:45.477Z,5.36
2023-03-05T02:42:14.781Z,5.59
2023-03-05T02:44:43.987Z,5.46
2023-03-05T02:47:13.206Z,5.56
2023-03-05T02:49:42.437Z,5.61
2023-03-05T02:52:11.739Z,5.59
2023-03-05T02:54:43.540Z,5.64
2023-03-05T02:57:12.815Z,5.77
2023-03-05T02:59:42.637Z,5.64
2023-03-05T03:02:11.956Z,5.62
2023-03-05T03:04:41.318Z,5.72
2023-03-05T03:07:10.552Z,5.41
2023-03-05T03:09:40.006Z,5.61
2023-03-05T03:12:12.833Z,5.52
2023-03-05T03:14:44.232Z,5.46
2023-03-05T03:17:15.511Z,5.67
2023-03-05T03:19:46.033Z,5.50
2023-03-05T03:22:17.949Z,5.32
2023-03-05T03:24:47.398Z,5.42
2023-03-05T03:27:19.282Z,5.51
2023-03-05T03:29:48.507Z,5.36
2023-03-05T03:32:17.864Z,5.50
2023-03-05T03:34:48.201Z,5.39
2023-03-05T03:37:17.985Z,5.49
2023-03-05T03:39:47.247Z,5.50
2023-03-05T03:42:19.674Z,5.46
2023-03-05T03:44:49.378Z,5.53
2023-03-05T03:47:18.674Z,5.60
2023-03-05T03:49:47.914Z,5.55
2023-03-05T03:52:17.407Z,5.65
2023-03-05T03:54:46.632Z,5.63
2023-03-05T03:57:15.862Z,5.60
2023-03-05T03:59:47.740Z,5.62
2023-03-05T04:02:17.112Z,5.60
2023-03-05T04:04:46.469Z,5.54
2023-03-05T04:07:15.809Z,5.58
2023-03-05T04:09:45.121Z,5.57
2023-03-05T04:12:18.097Z,5.47
2023-03-05T04:14:51.639Z,5.47
2023-03-05T04:17:20.850Z,5.53
2023-03-05T04:19:50.121Z,5.35
2023-03-05T04:22:20.279Z,5.45
2023-03-05T04:24:49.502Z,5.35
2023-03-05T04:27:18.870Z,5.25
2023-03-05T04:29:50.758Z,5.33
2023-03-05T04:32:23.306Z,5.34
2023-03-05T04:34:52.803Z,5.04
2023-03-05T04:37:22.028Z,5.11
2023-03-05T04:39:51.251Z,5.05
2023-03-05T04:42:21.179Z,5.19
2023-03-05T04:44:53.779Z,5.34
2023-03-05T04:47:23.634Z,5.34
2023-03-05T04:49:52.903Z,5.19
2023-03-05T04:52:22.215Z,5.15
2023-03-05T04:54:51.555Z,5.11
2023-03-05T04:57:22.659Z,5.07
2023-03-05T04:59:56.202Z,5.05
2023-03-05T05:02:30.696Z,5.15
2023-03-05T05:05:01.837Z,4.83
2023-03-05T05:07:32.831Z,5.03
2023-03-05T05:10:06.125Z,5.08
2023-03-05T05:12:37.884Z,5.20
2023-03-05T05:15:14.503Z,4.92
2023-03-05T05:17:43.794Z,4.95
2023-03-05T05:20:17.828Z,5.14
2023-03-05T05:22:47.465Z,5.12
2023-03-05T05:25:16.752Z,5.23
2023-03-05T05:27:46.062Z,5.03
2023-03-05T05:30:18.504Z,5.21
2023-03-05T05:32:47.810Z,5.14
2023-03-05T05:35:17.072Z,5.08
2023-03-05T05:37:46.283Z,5.21
2023-03-05T05:40:16.063Z,5.20
2023-03-05T05:42:45.411Z,5.25
2023-03-05T05:45:17.711Z,5.24
2023-03-05T05:47:46.964Z,5.24
2023-03-05T05:50:16.597Z,5.30
2023-03-05T05:52:45.878Z,5.23
2023-03-05T05:55:15.726Z,5.06
2023-03-05T05:57:45.036Z,5.17
2023-03-05T06:00:19.594Z,5.01
2023-03-05T06:02:48.850Z,5.13
2023-03-05T06:05:18.071Z,5.16
2023-03-05T06:07:47.488Z,5.18
2023-03-05T06:10:16.943Z,5.07
2023-03-05T06:12:46.193Z,5.20
2023-03-05T06:15:15.550Z,5.10
2023-03-05T06:17:47.923Z,5.12
2023-03-05T06:20:17.507Z,5.08
2023-03-05T06:22:46.902Z,5.21
2023-03-05T06:25:16.129Z,5.19
2023-03-05T06:27:45.465Z,5.18
2023-03-05T06:30:15.716Z,5.13
2023-03-05T06:32:47.540Z,5.11
2023-03-05T06:35:16.778Z,5.21
2023-03-05T06:37:46.018Z,5.20
2023-03-05T06:40:16.544Z,4.84
2023-03-05T06:42:45.805Z,5.08
2023-03-05T06:45:15.526Z,4.89
2023-03-05T06:47:47.308Z,4.99
2023-03-05T06:50:17.514Z,5.06
2023-03-05T06:52:49.498Z,5.03
2023-03-05T06:55:19.249Z,5.02
2023-03-05T06:57:48.540Z,5.18
2023-03-05T07:00:19.198Z,5.12
2023-03-05T07:02:51.072Z,4.99
2023-03-05T07:05:20.470Z,5.03
2023-03-05T07:07:49.837Z,4.98
2023-03-05T07:10:19.439Z,5.06
2023-03-05T07:12:51.332Z,5.06
2023-03-05T07:15:23.626Z,5.18
2023-03-05T07:17:56.618Z,5.11
2023-03-05T07:20:25.959Z,5.16
2023-03-05T07:22:55.162Z,5.00
2023-03-05T07:25:24.577Z,5.10
2023-03-05T07:27:54.036Z,4.90
2023-03-05T07:30:23.589Z,4.91
2023-03-05T07:32:55.406Z,4.91
2023-03-05T07:35:24.737Z,4.76
2023-03-05T07:37:54.977Z,4.81
2023-03-05T07:40:24.666Z,4.95
2023-03-05T07:42:54.673Z,5.07
2023-03-05T07:45:23.926Z,4.99
2023-03-05T07:47:56.178Z,5.09
2023-03-05T07:50:25.633Z,5.06
2023-03-05T07:52:55.431Z,5.27
2023-03-05T07:55:24.711Z,5.23
2023-03-05T07:57:54.214Z,5.08
2023-03-05T08:00:23.970Z,5.02
2023-03-05T08:02:55.844Z,5.15
2023-03-05T08:05:26.242Z,5.15
2023-03-05T08:07:55.512Z,5.04
2023-03-05T08:10:26.071Z,5.06
2023-03-05T08:12:55.371Z,5.03
2023-03-05T08:15:24.643Z,5.15
2023-03-05T08:17:56.590Z,5.10
2023-03-05T08:20:26.422Z,5.10
2023-03-05T08:22:55.754Z,5.03
2023-03-05T08:25:25.360Z,5.02
2023-03-05T08:27:55.070Z,5.11
2023-03-05T08:30:27.253Z,5.18
2023-03-05T08:32:59.268Z,5.24
2023-03-05T08:35:28.562Z,5.06
2023-03-05T08:37:57.798Z,5.09
2023-03-05T08:40:27.074Z,5.12
2023-03-05T08:42:56.314Z,5.14
2023-03-05T08:45:26.230Z,4.91
2023-03-05T08:48:00.889Z,5.05
2023-03-05T08:50:30.195Z,5.02
2023-03-05T08:53:00.174Z,5.02
2023-03-05T08:55:29.410Z,5.03
2023-03-05T08:57:58.624Z,5.20
2023-03-05T09:00:28.053Z,5.04
2023-03-05T09:02:57.334Z,5.05
2023-03-05T09:05:29.245Z,5.09
2023-03-05T09:07:58.475Z,5.16
2023-03-05T09:10:27.689Z,5.16
2023-03-05T09:12:56.886Z,5.16
2023-03-05T09:15:26.129Z,5.25
2023-03-05T09:17:55.361Z,5.15
2023-03-05T09:20:24.939Z,5.19
2023-03-05T09:22:56.745Z,5.25
2023-03-05T09:25:26.078Z,5.25
2023-03-05T09:27:55.502Z,5.42
2023-03-05T09:30:24.734Z,5.43
2023-03-05T09:32:53.953Z,5.41
2023-03-05T09:35:23.207Z,5.30
2023-03-05T09:37:52.679Z,5.24
2023-03-05T09:40:25.983Z,5.44
2023-03-05T09:43:08.183Z,5.46
2023-03-05T09:45:43.800Z,5.38
2023-03-05T09:48:22.789Z,5.46
2023-03-05T09:50:55.092Z,5.41
2023-03-05T09:53:33.913Z,5.45
2023-03-05T09:56:13.127Z,5.51
2023-03-05T09:58:44.578Z,5.55
2023-03-05T10:01:18.523Z,5.59
2023-03-05T10:03:57.334Z,5.51
2023-03-05T10:06:29.279Z,5.69
2023-03-05T10:09:03.261Z,5.68
2023-03-05T10:11:42.341Z,5.60
2023-03-05T10:14:18.434Z,5.62
2023-03-05T10:17:05.654Z,5.54
2023-03-05T10:19:57.154Z,5.52
2023-03-05T10:22:30.814Z,5.67
2023-03-05T10:25:16.444Z,5.62
2023-03-05T10:27:54.216Z,5.60
2023-03-05T10:30:42.478Z,5.75
2023-03-05T10:33:23.688Z,5.59
2023-03-05T10:36:12.998Z,5.69
2023-03-05T10:39:18.308Z,5.56
2023-03-05T10:42:04.192Z,5.68
2023-03-05T10:44:44.436Z,5.66
2023-03-05T10:47:27.825Z,5.67
2023-03-05T10:50:01.852Z,5.66
2023-03-05T10:52:36.714Z,5.59
2023-03-05T10:55:19.026Z,5.66
2023-03-05T10:57:52.030Z,5.75
2023-03-05T11:00:27.932Z,5.68
2023-03-05T11:03:05.756Z,5.70
2023-03-05T11:05:43.171Z,5.45
2023-03-05T11:08:32.334Z,5.51
2023-03-05T11:11:18.180Z,5.56
2023-03-05T11:13:55.735Z,5.59
2023-03-05T11:16:33.325Z,5.57
2023-03-05T11:19:21.635Z,5.52
2023-03-05T11:22:17.430Z,5.54
2023-03-05T11:25:07.261Z,5.61
2023-03-05T11:27:39.438Z,5.50
2023-03-05T11:30:22.520Z,5.65
2023-03-05T11:32:51.883Z,5.72
2023-03-05T11:35:34.675Z,5.67
2023-03-05T11:38:04.489Z,5.66
2023-03-05T11:40:38.410Z,5.66
2023-03-05T11:43:09.153Z,5.61
2023-03-05T11:45:40.124Z,5.76
2023-03-05T11:48:15.017Z,5.82
2023-03-05T11:50:46.991Z,5.75
2023-03-05T11:53:21.627Z,5.85
2023-03-05T11:55:57.361Z,5.96
2023-03-05T11:58:34.986Z,5.93
2023-03-05T12:01:06.621Z,6.02
2023-03-05T12:03:38.898Z,5.99
2023-03-05T12:06:17.394Z,5.90
2023-03-05T12:08:52.266Z,6.02
2023-03-05T12:11:29.038Z,5.93
2023-03-05T12:14:03.640Z,6.12
2023-03-05T12:16:39.499Z,6.23
2023-03-05T12:19:28.455Z,6.24
2023-03-05T12:21:58.301Z,6.26
2023-03-05T12:24:39.960Z,6.12
2023-03-05T12:27:14.960Z,6.12
2023-03-05T12:29:49.706Z,6.12
2023-03-05T12:33:03.673Z,6.17
2023-03-05T12:35:36.877Z,5.99
2023-03-05T12:38:34.504Z,6.20
2023-03-05T12:41:37.516Z,6.09
2023-03-05T12:44:23.762Z,6.21
2023-03-05T12:47:19.285Z,6.35
2023-03-05T12:49:50.365Z,6.45
2023-03-05T12:52:32.302Z,6.44
2023-03-05T12:55:20.287Z,6.46
2023-03-05T12:57:52.550Z,6.40
2023-03-05T13:00:33.712Z,6.21
2023-03-05T13:03:06.777Z,6.39
2023-03-05T13:05:39.226Z,6.49
2023-03-05T13:08:20.828Z,6.47
2023-03-05T13:10:54.940Z,6.40
2023-03-05T13:13:25.532Z,6.22
2023-03-05T13:15:57.791Z,6.20
2023-03-05T13:18:29.442Z,6.30
2023-03-05T13:21:07.143Z,6.10
2023-03-05T13:23:37.727Z,6.22
2023-03-05T13:26:15.466Z,6.26
2023-03-05T13:28:45.833Z,6.26
2023-03-05T13:31:23.098Z,6.17
2023-03-05T13:33:55.633Z,6.16
2023-03-05T13:36:27.291Z,5.99
2023-03-05T13:38:57.296Z,5.87
2023-03-05T13:41:29.313Z,6.13
2023-03-05T13:44:00.060Z,6.05
2023-03-05T13:46:34.429Z,6.10
2023-03-05T13:49:22.184Z,6.15
2023-03-05T13:51:53.598Z,6.17
2023-03-05T13:54:24.228Z,6.34
2023-03-05T13:56:56.580Z,6.11
2023-03-05T13:59:28.294Z,6.14
2023-03-05T14:02:01.378Z,6.14
2023-03-05T14:04:32.539Z,6.20
2023-03-05T14:07:04.020Z,6.30
2023-03-05T14:09:45.862Z,6.24
2023-03-05T14:12:27.464Z,6.42
2023-03-05T14:14:58.612Z,6.36
2023-03-05T14:17:43.324Z,6.41
2023-03-05T14:20:25.735Z,6.41
2023-03-05T14:22:56.921Z,6.41
2023-03-05T14:25:33.838Z,6.41
2023-03-05T14:28:03.757Z,6.46
2023-03-05T14:30:35.188Z,6.34
2023-03-05T14:33:07.442Z,6.50
2023-03-05T14:35:38.110Z,6.48
2023-03-05T14:38:08.418Z,6.36
2023-03-05T14:40:38.891Z,6.40
2023-03-05T14:43:08.870Z,6.27
2023-03-05T14:45:41.021Z,6.45
2023-03-05T14:48:15.352Z,6.20
2023-03-05T14:50:46.878Z,6.34
2023-03-05T14:53:18.721Z,6.21
2023-03-05T14:55:50.453Z,6.33
2023-03-05T14:58:22.739Z,6.26
2023-03-05T15:00:52.129Z,6.09
2023-03-05T15:03:25.610Z,6.17
2023-03-05T15:05:56.902Z,6.22
2023-03-05T15:08:29.018Z,6.04
2023-03-05T15:10:58.962Z,6.14
2023-03-05T15:13:28.783Z,6.23
2023-03-05T15:15:58.205Z,5.93
2023-03-05T15:18:30.236Z,6.23
2023-03-05T15:20:59.740Z,6.16
2023-03-05T15:23:34.132Z,6.30
2023-03-05T15:26:06.359Z,6.39
2023-03-05T15:28:37.078Z,6.27
2023-03-05T15:31:07.413Z,6.35
2023-03-05T15:33:40.809Z,6.27
2023-03-05T15:36:11.541Z,6.41
2023-03-05T15:38:41.671Z,6.43
2023-03-05T15:41:11.004Z,6.14
2023-03-05T15:43:40.691Z,6.22
2023-03-05T15:46:10.052Z,6.30
2023-03-05T15:48:44.153Z,6.15
2023-03-05T15:51:13.494Z,6.28
2023-03-05T15:53:42.684Z,6.30
2023-03-05T15:56:17.341Z,6.23
2023-03-05T15:58:46.658Z,6.44
2023-03-05T16:01:19.157Z,6.25
2023-03-05T16:03:51.011Z,6.23
2023-03-05T16:06:23.229Z,6.24
2023-03-05T16:08:56.633Z,6.23
2023-03-05T16:11:25.937Z,6.11
2023-03-05T16:13:55.236Z,6.32
2023-03-05T16:16:25.417Z,6.08
2023-03-05T16:18:57.676Z,6.18
2023-03-05T16:21:27.247Z,6.05
2023-03-05T16:23:56.478Z,6.21
2023-03-05T16:26:25.684Z,6.33
2023-03-05T16:28:55.059Z,6.34
2023-03-05T16:31:24.335Z,5.98
2023-03-05T16:33:53.546Z,6.08
2023-03-05T16:36:27.801Z,6.06
2023-03-05T16:38:58.590Z,6.03
2023-03-05T16:41:29.269Z,6.10
2023-03-05T16:43:59.080Z,6.18
2023-03-05T16:46:29.859Z,6.14
2023-03-05T16:48:59.743Z,6.21
2023-03-05T16:51:31.760Z,6.25
2023-03-05T16:54:01.063Z,6.31
2023-03-05T16:56:30.382Z,6.35
2023-03-05T16:58:59.657Z,6.23
2023-03-05T17:01:30.262Z,6.19
2023-03-05T17:04:02.031Z,6.39
2023-03-05T17:06:35.193Z,6.19
2023-03-05T17:09:05.213Z,6.23
2023-03-05T17:11:34.539Z,6.31
2023-03-05T17:14:04.035Z,6.30
2023-03-05T17:16:33.633Z,6.28
2023-03-05T17:19:02.962Z,6.34
2023-03-05T17:21:34.773Z,6.24
2023-03-05T17:24:04.314Z,6.38
2023-03-05T17:26:36.348Z,6.55
2023-03-05T17:29:06.164Z,6.48
2023-03-05T17:31:35.925Z,6.41
2023-03-05T17:34:05.816Z,6.32
2023-03-05T17:36:39.246Z,6.28
2023-03-05T17:39:08.827Z,6.43
2023-03-05T17:41:38.194Z,6.38
2023-03-05T17:44:07.768Z,6.35
2023-03-05T17:46:37.002Z,6.53
2023-03-05T17:49:06.540Z,6.41
2023-03-05T17:51:38.365Z,6.32
2023-03-05T17:54:08.351Z,6.42
2023-03-05T17:56:37.570Z,6.48
2023-03-05T17:59:06.829Z,6.63
2023-03-05T18:01:37.047Z,6.61
2023-03-05T18:04:06.440Z,6.44
2023-03-05T18:06:38.299Z,6.62
2023-03-05T18:09:07.539Z,6.48
2023-03-05T18:11:38.637Z,6.49
2023-03-05T18:14:08.062Z,6.45
2023-03-05T18:16:37.394Z,6.48
2023-03-05T18:19:08.127Z,6.63
2023-03-05T18:21:39.973Z,6.49
2023-03-05T18:24:09.909Z,6.27
2023-03-05T18:26:39.198Z,6.45
2023-03-05T18:29:08.419Z,6.55
2023-03-05T18:31:37.695Z,6.38
2023-03-05T18:34:06.984Z,6.33
2023-03-05T18:36:36.220Z,6.39
2023-03-05T18:39:08.060Z,6.55
2023-03-05T18:41:37.298Z,6.70
2023-03-05T18:44:08.477Z,6.70
2023-03-05T18:46:37.711Z,6.72
2023-03-05T18:49:06.957Z,6.74
2023-03-05T18:51:37.032Z,6.70
2023-03-05T18:54:08.871Z,6.65
2023-03-05T18:56:38.379Z,6.69
2023-03-05T18:59:07.584Z,6.75
2023-03-05T19:01:36.877Z,6.62
2023-03-05T19:04:06.574Z,6.65
2023-03-05T19:06:38.429Z,6.61
2023-03-05T19:09:19.481Z,6.65
2023-03-05T19:11:49.782Z,6.55
2023-03-05T19:14:19.109Z,6.50
2023-03-05T19:16:48.789Z,6.49
2023-03-05T19:19:20.274Z,6.56
2023-03-05T19:21:53.511Z,6.54
2023-03-05T19:24:27.253Z,6.39
2023-03-05T19:26:58.205Z,6.50
2023-03-05T19:29:30.269Z,6.50
2023-03-05T19:31:59.508Z,6.41
2023-03-05T19:34:28.757Z,6.42
2023-03-05T19:36:58.003Z,6.38
2023-03-05T19:39:29.922Z,6.25
2023-03-05T19:41:59.179Z,6.28
2023-03-05T19:44:28.730Z,6.30
2023-03-05T19:46:58.021Z,6.30
2023-03-05T19:49:27.822Z,6.30
2023-03-05T19:51:57.468Z,6.35
2023-03-05T19:54:30.024Z,6.30
2023-03-05T19:57:00.056Z,6.23
2023-03-05T19:59:29.522Z,6.19
2023-03-05T20:02:00.535Z,6.13
2023-03-05T20:04:29.836Z,6.17
2023-03-05T20:06:59.075Z,6.19
2023-03-05T20:09:30.870Z,6.22
2023-03-05T20:12:03.149Z,6.18
2023-03-05T20:14:32.374Z,6.11
2023-03-05T20:17:01.616Z,6.12
2023-03-05T20:19:30.989Z,6.02
2023-03-05T20:22:00.772Z,6.06
2023-03-05T20:24:32.610Z,6.02
2023-03-05T20:27:03.819Z,5.93
2023-03-05T20:29:33.070Z,5.96
2023-03-05T20:32:02.425Z,5.92
2023-03-05T20:34:31.903Z,5.87
2023-03-05T20:37:01.145Z,5.94
2023-03-05T20:39:33.055Z,5.87
2023-03-05T20:42:02.269Z,5.88
2023-03-05T20:44:31.549Z,5.85
2023-03-05T20:47:12.531Z,5.88
2023-03-05T20:49:41.778Z,5.84
2023-03-05T20:52:10.982Z,5.93
2023-03-05T20:54:42.828Z,6.00
2023-03-05T20:57:12.147Z,6.00
2023-03-05T20:59:41.427Z,6.10
2023-03-05T21:02:12.060Z,6.02
2023-03-05T21:04:41.459Z,5.99
2023-03-05T21:07:10.674Z,6.01
2023-03-05T21:09:39.947Z,6.00
2023-03-05T21:12:11.941Z,5.90
2023-03-05T21:14:41.194Z,6.05
2023-03-05T21:17:11.434Z,5.98
2023-03-05T21:19:41.632Z,5.84
2023-03-05T21:22:10.850Z,6.00
2023-03-05T21:24:53.570Z,6.03
2023-03-05T21:27:25.495Z,6.00
2023-03-05T21:29:55.185Z,5.58
2023-03-05T21:32:24.888Z,5.70
2023-03-05T21:34:54.932Z,5.50
2023-03-05T21:37:24.500Z,5.29
2023-03-05T21:39:53.985Z,5.28
2023-03-05T21:42:26.035Z,5.31
2023-03-05T21:44:55.409Z,5.29
2023-03-05T21:47:24.784Z,5.19
2023-03-05T21:49:54.540Z,5.42
2023-03-05T21:52:24.404Z,5.22
2023-03-05T21:54:57.220Z,5.31
2023-03-05T21:57:32.490Z,5.21
2023-03-05T22:00:02.483Z,5.20
2023-03-05T22:02:33.108Z,5.18
2023-03-05T22:05:02.829Z,5.23
2023-03-05T22:07:34.504Z,5.21
2023-03-05T22:10:03.979Z,5.22
2023-03-05T22:12:52.146Z,5.12
2023-03-05T22:15:22.032Z,5.01
2023-03-05T22:17:54.832Z,5.29
2023-03-05T22:20:24.636Z,5.46
2023-03-05T22:22:54.411Z,5.49
2023-03-05T22:25:23.944Z,5.50
2023-03-05T22:27:56.196Z,5.59
2023-03-05T22:30:26.046Z,5.53
2023-03-05T22:32:56.466Z,5.65
2023-03-05T22:35:25.937Z,5.64
2023-03-05T22:37:55.347Z,5.69
2023-03-05T22:40:25.409Z,5.65
2023-03-05T22:42:57.406Z,5.66
2023-03-05T22:45:26.803Z,5.64
2023-03-05T22:47:56.086Z,5.68
2023-03-05T22:50:25.602Z,5.37
2023-03-05T22:52:55.222Z,5.58
2023-03-05T22:55:24.859Z,5.51
2023-03-05T22:57:56.926Z,5.58
2023-03-05T23:00:28.489Z,5.65
2023-03-05T23:02:57.972Z,5.62
2023-03-05T23:05:29.584Z,5.63
2023-03-05T23:07:59.098Z,5.72
2023-03-05T23:10:30.030Z,5.65
2023-03-05T23:13:05.324Z,5.68
2023-03-05T23:15:36.684Z,5.67
2023-03-05T23:18:08.601Z,5.66
2023-03-05T23:20:39.876Z,5.65
2023-03-05T23:23:09.612Z,5.68
2023-03-05T23:25:39.256Z,5.64
2023-03-05T23:28:11.386Z,5.73
2023-03-05T23:30:43.105Z,5.69
2023-03-05T23:33:17.429Z,5.71
2023-03-05T23:35:54.358Z,5.74
2023-03-05T23:38:24.084Z,5.63
2023-03-05T23:40:55.815Z,5.63
2023-03-05T23:43:28.141Z,5.60
2023-03-05T23:45:57.590Z,5.65
2023-03-05T23:48:28.710Z,5.73
2023-03-05T23:50:58.665Z,5.65
2023-03-05T23:53:31.190Z,5.69
2023-03-05T23:56:00.596Z,5.68
2023-03-05T23:58:32.435Z,5.76
